createdAt,value
2022-08-05T00:00:22.970Z,1.90
2022-08-05T00:01:54.652Z,1.70
2022-08-05T00:03:26.474Z,1.75
2022-08-05T00:04:58.138Z,2.20
2022-08-05T00:06:33.338Z,1.70
2022-08-05T00:08:32.753Z,2.00
2022-08-05T00:10:00.805Z,2.05
2022-08-05T00:11:35.119Z,1.83
2022-08-05T00:13:20.395Z,2.20
2022-08-05T00:15:40.740Z,2.08
2022-08-05T00:17:03.002Z,1.90
2022-08-05T00:18:34.746Z,2.20
2022-08-05T00:20:06.818Z,1.92
2022-08-05T00:21:38.834Z,2.08
2022-08-05T00:23:14.468Z,2.20
2022-08-05T00:24:46.064Z,2.00
2022-08-05T00:26:27.181Z,1.80
2022-08-05T00:27:59.848Z,1.70
2022-08-05T00:29:37.680Z,2.10
2022-08-05T00:31:09.891Z,2.28
2022-08-05T00:32:43.042Z,1.80
2022-08-05T00:34:56.731Z,2.20
2022-08-05T00:36:16.172Z,2.08
2022-08-05T00:37:58.306Z,2.25
2022-08-05T00:39:29.999Z,2.17
2022-08-05T00:41:13.498Z,2.10
2022-08-05T00:42:49.167Z,2.17
2022-08-05T00:44:23.313Z,2.00
2022-08-05T00:46:02.287Z,2.25
2022-08-05T00:47:56.985Z,2.03
2022-08-05T00:49:28.075Z,2.08
2022-08-05T00:51:08.809Z,2.08
2022-08-05T00:52:40.660Z,2.30
2022-08-05T00:54:13.434Z,2.00
2022-08-05T00:55:45.333Z,2.08
2022-08-05T00:57:17.103Z,2.10
2022-08-05T00:58:52.935Z,1.85
2022-08-05T01:00:29.427Z,1.90
2022-08-05T01:02:01.221Z,2.10
2022-08-05T01:03:34.177Z,1.90
2022-08-05T01:05:06.892Z,1.75
2022-08-05T01:06:41.882Z,2.13
2022-08-05T01:08:40.529Z,2.10
2022-08-05T01:10:13.919Z,2.25
2022-08-05T01:11:49.480Z,2.22
2022-08-05T01:13:58.539Z,2.28
2022-08-05T01:15:38.008Z,2.20
2022-08-05T01:17:27.889Z,2.03
2022-08-05T01:20:02.451Z,1.92
2022-08-05T01:21:52.634Z,1.85
2022-08-05T01:23:34.856Z,1.80
2022-08-05T01:25:40.658Z,2.03
2022-08-05T01:27:55.887Z,2.10
2022-08-05T01:29:34.974Z,2.13
2022-08-05T01:31:11.463Z,2.00
2022-08-05T01:32:46.251Z,2.10
2022-08-05T01:34:28.317Z,2.00
2022-08-05T01:36:03.244Z,1.75
2022-08-05T01:37:57.964Z,2.30
2022-08-05T01:39:36.898Z,2.17
2022-08-05T01:41:22.715Z,1.77
2022-08-05T01:43:00.933Z,2.17
2022-08-05T01:44:36.792Z,2.45
2022-08-05T01:46:16.277Z,2.03
2022-08-05T01:47:49.867Z,2.08
2022-08-05T01:49:42.719Z,2.40
2022-08-05T01:51:20.352Z,2.10
2022-08-05T01:52:53.689Z,2.30
2022-08-05T01:54:32.045Z,2.35
2022-08-05T01:56:05.469Z,2.20
2022-08-05T01:58:11.868Z,2.30
2022-08-05T01:59:35.349Z,2.30
2022-08-05T02:01:07.403Z,2.40
2022-08-05T02:02:54.555Z,2.30
2022-08-05T02:04:30.063Z,2.15
2022-08-05T02:06:33.968Z,2.40
2022-08-05T02:08:01.371Z,2.22
2022-08-05T02:09:33.496Z,2.15
2022-08-05T02:11:11.798Z,2.22
2022-08-05T02:12:51.505Z,2.30
2022-08-05T02:14:33.472Z,2.28
2022-08-05T02:16:16.547Z,2.30
2022-08-05T02:18:32.610Z,2.30
2022-08-05T02:19:50.854Z,2.30
2022-08-05T02:21:28.694Z,2.20
2022-08-05T02:23:08.861Z,2.00
2022-08-05T02:24:44.711Z,2.50
2022-08-05T02:26:28.301Z,2.22
2022-08-05T02:28:02.326Z,2.17
2022-08-05T02:29:58.846Z,2.42
2022-08-05T02:31:34.935Z,2.03
2022-08-05T02:33:08.410Z,2.25
2022-08-05T02:34:44.104Z,2.17
2022-08-05T02:36:31.554Z,2.28
2022-08-05T02:38:05.272Z,2.13
2022-08-05T02:39:42.385Z,1.92
2022-08-05T02:41:20.808Z,2.80
2022-08-05T02:42:56.740Z,2.50
2022-08-05T02:44:31.984Z,2.40
2022-08-05T02:46:04.605Z,2.45
2022-08-05T02:48:07.282Z,2.20
2022-08-05T02:49:37.677Z,2.40
2022-08-05T02:51:14.156Z,2.10
2022-08-05T02:52:47.973Z,2.60
2022-08-05T02:54:34.926Z,2.30
2022-08-05T02:56:15.748Z,2.42
2022-08-05T02:58:11.486Z,2.33
2022-08-05T02:59:48.097Z,2.08
2022-08-05T03:01:25.611Z,2.40
2022-08-05T03:02:59.784Z,2.33
2022-08-05T03:04:31.723Z,2.22
2022-08-05T03:06:55.284Z,2.28
2022-08-05T03:08:06.766Z,2.40
2022-08-05T03:09:43.895Z,2.13
2022-08-05T03:11:53.423Z,2.10
2022-08-05T03:13:18.039Z,2.05
2022-08-05T03:14:49.664Z,2.03
2022-08-05T03:16:21.949Z,2.08
2022-08-05T03:17:55.840Z,2.50
2022-08-05T03:19:33.196Z,2.30
2022-08-05T03:21:06.211Z,2.42
2022-08-05T03:22:38.398Z,2.50
2022-08-05T03:24:29.599Z,2.78
2022-08-05T03:26:30.066Z,2.10
2022-08-05T03:27:59.562Z,2.30
2022-08-05T03:29:45.854Z,2.40
2022-08-05T03:31:56.520Z,2.10
2022-08-05T03:33:18.498Z,2.20
2022-08-05T03:34:51.856Z,2.42
2022-08-05T03:36:30.060Z,2.55
2022-08-05T03:38:02.865Z,2.30
2022-08-05T03:39:47.263Z,2.40
2022-08-05T03:41:26.316Z,2.20
2022-08-05T03:43:58.474Z,2.30
2022-08-05T03:44:57.085Z,2.28
2022-08-05T03:46:30.021Z,2.50
2022-08-05T03:48:05.219Z,2.42
2022-08-05T03:49:51.397Z,2.13
2022-08-05T03:52:38.510Z,2.10
2022-08-05T03:55:51.361Z,2.53
2022-08-05T03:56:05.120Z,2.20
2022-08-05T03:57:42.412Z,2.13
2022-08-05T03:59:21.663Z,2.30
2022-08-05T04:01:00.025Z,2.20
2022-08-05T04:02:39.194Z,2.35
2022-08-05T04:04:26.437Z,1.83
2022-08-05T04:05:59.221Z,1.85
2022-08-05T04:07:33.010Z,2.30
2022-08-05T04:09:06.311Z,2.40
2022-08-05T04:10:38.572Z,2.20
2022-08-05T04:12:23.503Z,1.95
2022-08-05T04:13:56.441Z,2.30
2022-08-05T04:15:32.901Z,2.35
2022-08-05T04:17:09.080Z,2.28
2022-08-05T04:18:45.867Z,2.00
2022-08-05T04:20:25.497Z,2.30
2022-08-05T04:22:09.468Z,2.55
2022-08-05T04:24:05.977Z,2.38
2022-08-05T04:25:56.823Z,2.00
2022-08-05T04:27:41.815Z,2.30
2022-08-05T04:29:15.245Z,2.20
2022-08-05T04:30:48.067Z,2.40
2022-08-05T04:32:30.606Z,1.90
2022-08-05T04:34:33.117Z,2.08
2022-08-05T04:36:10.699Z,2.10
2022-08-05T04:38:00.909Z,2.55
2022-08-05T04:39:35.503Z,2.60
2022-08-05T04:41:09.460Z,2.42
2022-08-05T04:42:41.732Z,2.40
2022-08-05T04:44:13.864Z,2.65
2022-08-05T04:45:48.567Z,2.10
2022-08-05T04:47:26.632Z,2.42
2022-08-05T04:48:59.887Z,2.20
2022-08-05T04:50:34.434Z,2.42
2022-08-05T04:52:09.300Z,2.10
2022-08-05T04:53:40.935Z,2.60
2022-08-05T04:55:14.922Z,2.50
2022-08-05T04:56:47.971Z,2.58
2022-08-05T04:58:21.606Z,2.30
2022-08-05T04:59:53.401Z,2.13
2022-08-05T05:01:33.455Z,2.67
2022-08-05T05:03:16.924Z,2.22
2022-08-05T05:04:52.029Z,2.38
2022-08-05T05:06:39.292Z,2.28
2022-08-05T05:08:26.558Z,2.38
2022-08-05T05:10:05.351Z,2.30
2022-08-05T05:11:41.454Z,2.25
2022-08-05T05:13:24.700Z,2.42
2022-08-05T05:14:56.322Z,2.45
2022-08-05T05:16:30.412Z,2.55
2022-08-05T05:18:02.358Z,2.50
2022-08-05T05:19:36.787Z,2.25
2022-08-05T05:21:15.754Z,2.47
2022-08-05T05:22:47.755Z,2.33
2022-08-05T05:24:21.676Z,2.25
2022-08-05T05:25:53.306Z,2.40
2022-08-05T05:27:45.250Z,2.83
2022-08-05T05:29:17.171Z,2.30
2022-08-05T05:30:50.854Z,2.45
2022-08-05T05:32:22.731Z,2.30
2022-08-05T05:34:01.653Z,2.25
2022-08-05T05:35:39.639Z,2.28
2022-08-05T05:37:15.068Z,2.38
2022-08-05T05:38:47.388Z,2.30
2022-08-05T05:40:21.217Z,2.33
2022-08-05T05:41:57.836Z,2.20
2022-08-05T05:43:56.905Z,2.28
2022-08-05T05:45:21.693Z,2.20
2022-08-05T05:46:53.314Z,2.75
2022-08-05T05:48:27.733Z,2.17
2022-08-05T05:50:01.275Z,2.08
2022-08-05T05:51:50.320Z,2.25
2022-08-05T05:53:22.962Z,2.10
2022-08-05T05:54:54.694Z,2.92
2022-08-05T05:56:34.866Z,2.92
2022-08-05T05:58:06.658Z,2.28
2022-08-05T05:59:40.805Z,2.20
2022-08-05T06:01:15.763Z,2.40
2022-08-05T06:02:50.510Z,2.40
2022-08-05T06:04:22.192Z,2.15
2022-08-05T06:05:55.629Z,2.35
2022-08-05T06:07:42.073Z,2.28
2022-08-05T06:09:16.799Z,2.47
2022-08-05T06:10:52.835Z,2.35
2022-08-05T06:12:24.592Z,2.10
2022-08-05T06:14:00.429Z,2.40
2022-08-05T06:16:30.123Z,2.40
2022-08-05T06:17:24.518Z,2.45
2022-08-05T06:19:05.642Z,1.83
2022-08-05T06:20:38.889Z,2.20
2022-08-05T06:22:10.634Z,1.73
2022-08-05T06:23:43.607Z,1.67
2022-08-05T06:25:59.027Z,1.80
2022-08-05T06:27:17.301Z,1.80
2022-08-05T06:28:59.369Z,1.70
2022-08-05T06:30:35.360Z,1.63
2022-08-05T06:32:21.005Z,1.70
2022-08-05T06:34:07.002Z,1.60
2022-08-05T06:36:07.935Z,1.63
2022-08-05T06:37:57.507Z,1.60
2022-08-05T06:39:27.257Z,1.65
2022-08-05T06:40:59.838Z,1.30
2022-08-05T06:42:31.586Z,1.73
2022-08-05T06:44:03.395Z,1.60
2022-08-05T06:45:44.730Z,1.60
2022-08-05T06:47:42.167Z,1.73
2022-08-05T06:49:18.942Z,1.90
2022-08-05T06:50:53.102Z,2.05
2022-08-05T06:52:37.858Z,1.77
2022-08-05T06:54:10.111Z,1.80
2022-08-05T06:55:49.653Z,2.22
2022-08-05T06:58:03.933Z,1.67
2022-08-05T06:59:14.467Z,1.75
2022-08-05T07:00:46.750Z,1.73
2022-08-05T07:02:19.035Z,2.33
2022-08-05T07:03:55.459Z,1.88
2022-08-05T07:05:37.736Z,2.10
2022-08-05T07:07:12.849Z,2.03
2022-08-05T07:08:47.542Z,2.17
2022-08-05T07:10:32.387Z,1.80
2022-08-05T07:12:04.587Z,2.05
2022-08-05T07:13:59.818Z,1.92
2022-08-05T07:16:01.879Z,2.00
2022-08-05T07:18:00.418Z,2.30
2022-08-05T07:20:23.108Z,2.20
2022-08-05T07:21:25.760Z,2.00
2022-08-05T07:22:57.731Z,2.08
2022-08-05T07:24:29.952Z,2.28
2022-08-05T07:26:01.632Z,2.20
2022-08-05T07:27:57.161Z,2.30
2022-08-05T07:30:24.409Z,2.03
2022-08-05T07:31:17.937Z,1.85
2022-08-05T07:33:16.621Z,1.83
2022-08-05T07:34:48.740Z,2.28
2022-08-05T07:38:01.305Z,2.67
2022-08-05T07:40:26.527Z,2.50
2022-08-05T07:42:14.677Z,2.28
2022-08-05T07:43:20.606Z,2.20
2022-08-05T07:44:52.764Z,2.40
2022-08-05T07:46:30.668Z,2.35
2022-08-05T07:48:02.800Z,2.45
2022-08-05T07:49:34.570Z,2.05
2022-08-05T07:52:56.034Z,2.28
2022-08-05T07:54:30.246Z,2.40
2022-08-05T07:57:02.578Z,2.22
2022-08-05T07:58:02.819Z,2.45
2022-08-05T07:59:39.839Z,2.08
2022-08-05T08:01:12.953Z,2.38
2022-08-05T08:03:13.662Z,2.20
2022-08-05T08:04:38.780Z,2.00
2022-08-05T08:06:10.397Z,1.83
2022-08-05T08:07:59.603Z,1.83
2022-08-05T08:09:32.171Z,1.90
2022-08-05T08:11:03.808Z,2.33
2022-08-05T08:12:49.432Z,2.17
2022-08-05T08:14:21.866Z,2.35
2022-08-05T08:16:50.396Z,2.33
2022-08-05T08:17:50.679Z,2.33
2022-08-05T08:20:21.697Z,2.20
2022-08-05T08:21:17.645Z,2.47
2022-08-05T08:22:57.668Z,2.05
2022-08-05T08:24:51.661Z,1.87
2022-08-05T08:26:29.290Z,2.17
2022-08-05T08:28:01.599Z,1.98
2022-08-05T08:30:05.466Z,2.40
2022-08-05T08:31:24.779Z,2.33
2022-08-05T08:32:58.615Z,2.10
2022-08-05T08:34:36.509Z,1.92
2022-08-05T08:36:37.449Z,2.00
2022-08-05T08:38:00.236Z,2.17
2022-08-05T08:39:33.325Z,2.05
2022-08-05T08:41:10.674Z,1.77
2022-08-05T08:42:52.584Z,1.95
2022-08-05T08:45:19.740Z,2.00
2022-08-05T08:46:17.927Z,2.20
2022-08-05T08:48:10.628Z,2.28
2022-08-05T08:50:30.605Z,2.67
2022-08-05T08:52:06.405Z,2.10
2022-08-05T08:53:44.249Z,1.92
2022-08-05T08:55:19.538Z,2.40
2022-08-05T08:57:11.556Z,2.45
2022-08-05T08:58:47.986Z,2.08
2022-08-05T09:00:21.174Z,2.00
2022-08-05T09:01:57.582Z,2.17
2022-08-05T09:03:44.990Z,2.05
2022-08-05T09:05:18.475Z,1.83
2022-08-05T09:07:10.791Z,1.80
2022-08-05T09:09:01.465Z,2.00
2022-08-05T09:10:33.364Z,2.20
2022-08-05T09:12:19.987Z,2.42
2022-08-05T09:14:09.611Z,2.20
2022-08-05T09:15:53.038Z,2.20
2022-08-05T09:17:40.631Z,2.55
2022-08-05T09:19:15.056Z,2.10
2022-08-05T09:20:47.111Z,2.20
2022-08-05T09:22:28.752Z,2.50
2022-08-05T09:24:08.791Z,2.20
2022-08-05T09:26:01.756Z,2.10
2022-08-05T09:28:04.000Z,1.83
2022-08-05T09:29:47.920Z,2.15
2022-08-05T09:31:43.846Z,2.65
2022-08-05T09:33:11.449Z,2.50
2022-08-05T09:34:55.210Z,2.40
2022-08-05T09:36:56.401Z,2.40
2022-08-05T09:38:32.610Z,2.10
2022-08-05T09:40:05.164Z,2.08
2022-08-05T09:41:56.388Z,2.28
2022-08-05T09:43:41.158Z,2.22
2022-08-05T09:46:04.743Z,2.30
2022-08-05T09:47:13.946Z,2.20
2022-08-05T09:49:06.541Z,2.28
2022-08-05T09:50:44.746Z,2.28
2022-08-05T09:52:25.518Z,2.58
2022-08-05T09:53:59.095Z,2.28
2022-08-05T09:55:57.495Z,2.20
2022-08-05T09:57:33.745Z,2.53
2022-08-05T09:59:09.583Z,2.60
2022-08-05T10:01:14.974Z,2.20
2022-08-05T10:02:49.647Z,2.40
2022-08-05T10:04:34.952Z,2.30
2022-08-05T10:06:15.622Z,2.45
2022-08-05T10:08:35.379Z,2.70
2022-08-05T10:10:13.744Z,2.30
2022-08-05T10:11:46.462Z,2.55
2022-08-05T10:13:47.516Z,2.65
2022-08-05T10:15:34.341Z,3.13
2022-08-05T10:17:37.893Z,2.67
2022-08-05T10:19:08.601Z,2.55
2022-08-05T10:20:49.594Z,2.70
2022-08-05T10:22:29.898Z,2.58
2022-08-05T10:24:06.258Z,2.70
2022-08-05T10:25:42.299Z,2.13
2022-08-05T10:27:16.724Z,2.70
2022-08-05T10:28:48.606Z,2.83
2022-08-05T10:31:20.301Z,2.88
2022-08-05T10:32:54.586Z,2.60
2022-08-05T10:34:07.120Z,2.80
2022-08-05T10:35:40.575Z,2.80
2022-08-05T10:37:16.809Z,2.85
2022-08-05T10:38:55.782Z,2.63
2022-08-05T10:40:47.397Z,2.33
2022-08-05T10:42:33.467Z,3.13
2022-08-05T10:44:11.331Z,2.67
2022-08-05T10:45:56.245Z,3.15
2022-08-05T10:47:47.100Z,2.55
2022-08-05T10:49:49.128Z,2.78
2022-08-05T10:51:48.622Z,2.80
2022-08-05T10:53:42.644Z,2.80
2022-08-05T10:55:18.704Z,2.42
2022-08-05T10:56:53.448Z,2.42
2022-08-05T10:58:47.671Z,2.60
2022-08-05T11:00:22.965Z,2.58
2022-08-05T11:02:14.004Z,2.60
2022-08-05T11:04:07.237Z,2.30
2022-08-05T11:05:39.993Z,2.40
2022-08-05T11:07:16.289Z,2.67
2022-08-05T11:09:18.698Z,2.45
2022-08-05T11:11:44.479Z,2.53
2022-08-05T11:13:40.495Z,2.47
2022-08-05T11:15:59.414Z,2.35
2022-08-05T11:17:57.836Z,2.35
2022-08-05T11:20:10.754Z,2.50
2022-08-05T11:21:31.012Z,2.38
2022-08-05T11:24:05.717Z,2.83
2022-08-05T11:26:04.283Z,2.70
2022-08-05T11:29:36.234Z,2.30
2022-08-05T11:31:08.852Z,2.58
2022-08-05T11:32:41.574Z,2.40
2022-08-05T11:34:15.050Z,2.45
2022-08-05T11:36:07.992Z,2.35
2022-08-05T11:38:30.467Z,2.28
2022-08-05T11:39:49.039Z,2.22
2022-08-05T11:41:54.505Z,2.50
2022-08-05T11:44:05.094Z,2.08
2022-08-05T11:45:23.267Z,2.10
2022-08-05T11:47:14.149Z,2.40
2022-08-05T11:48:49.473Z,2.45
2022-08-05T11:50:22.806Z,1.90
2022-08-05T11:51:54.601Z,2.05
2022-08-05T11:53:29.194Z,2.13
2022-08-05T11:55:13.186Z,2.30
2022-08-05T11:56:52.274Z,2.05
2022-08-05T11:58:43.075Z,2.30
2022-08-05T12:00:30.225Z,2.22
2022-08-05T12:02:07.036Z,2.10
2022-08-05T12:03:57.209Z,2.17
2022-08-05T12:05:36.305Z,2.00
2022-08-05T12:07:17.839Z,1.98
2022-08-05T12:09:09.526Z,1.80
2022-08-05T12:10:53.644Z,2.35
2022-08-05T12:12:29.842Z,1.98
2022-08-05T12:14:06.052Z,2.10
2022-08-05T12:15:43.901Z,1.80
2022-08-05T12:18:03.809Z,1.90
2022-08-05T12:19:10.872Z,2.47
2022-08-05T12:21:17.524Z,1.88
2022-08-05T12:22:49.118Z,1.60
2022-08-05T12:24:24.657Z,2.00
2022-08-05T12:25:56.916Z,1.90
2022-08-05T12:27:32.610Z,1.80
2022-08-05T12:29:16.274Z,1.58
2022-08-05T12:30:49.712Z,1.67
2022-08-05T12:32:21.339Z,1.70
2022-08-05T12:33:54.732Z,1.50
2022-08-05T12:35:37.264Z,1.50
2022-08-05T12:37:17.027Z,1.80
2022-08-05T12:39:05.660Z,2.00
2022-08-05T12:40:38.683Z,1.80
2022-08-05T12:42:20.315Z,1.80
2022-08-05T12:43:57.767Z,2.00
2022-08-05T12:45:42.569Z,2.10
2022-08-05T12:47:30.757Z,1.88
2022-08-05T12:49:13.545Z,1.80
2022-08-05T12:51:21.809Z,1.67
2022-08-05T12:53:16.706Z,1.77
2022-08-05T12:54:49.800Z,1.50
2022-08-05T12:56:34.490Z,1.50
2022-08-05T12:58:48.593Z,2.00
2022-08-05T13:01:57.677Z,2.13
2022-08-05T13:02:01.009Z,2.00
2022-08-05T13:03:41.389Z,1.80
2022-08-05T13:05:15.030Z,2.00
2022-08-05T13:06:52.127Z,2.08
2022-08-05T13:08:23.819Z,1.70
2022-08-05T13:09:58.913Z,1.60
2022-08-05T13:12:01.920Z,1.40
2022-08-05T13:14:06.053Z,1.63
2022-08-05T13:15:24.340Z,1.42
2022-08-05T13:17:31.523Z,1.63
2022-08-05T13:19:03.740Z,1.40
2022-08-05T13:20:40.409Z,1.70
2022-08-05T13:22:12.266Z,1.60
2022-08-05T13:23:50.892Z,1.60
2022-08-05T13:25:52.556Z,1.80
2022-08-05T13:27:37.353Z,2.03
2022-08-05T13:29:10.650Z,1.60
2022-08-05T13:30:53.162Z,1.70
2022-08-05T13:32:33.094Z,1.50
2022-08-05T13:34:24.285Z,1.38
2022-08-05T13:37:34.411Z,1.42
2022-08-05T13:39:08.621Z,1.55
2022-08-05T13:41:00.103Z,1.65
2022-08-05T13:42:31.954Z,1.40
2022-08-05T13:44:03.803Z,1.40
2022-08-05T13:45:38.567Z,1.67
2022-08-05T13:47:35.094Z,1.30
2022-08-05T13:49:10.412Z,1.50
2022-08-05T13:50:43.505Z,1.30
2022-08-05T13:52:18.503Z,1.40
2022-08-05T13:53:50.117Z,1.20
2022-08-05T13:55:41.440Z,1.58
2022-08-05T13:57:15.053Z,1.30
2022-08-05T13:58:53.473Z,1.50
2022-08-05T14:00:26.763Z,1.35
2022-08-05T14:02:00.874Z,1.55
2022-08-05T14:03:32.644Z,1.48
2022-08-05T14:05:11.590Z,1.60
2022-08-05T14:06:47.572Z,1.25
2022-08-05T14:08:20.849Z,1.30
2022-08-05T14:09:59.574Z,1.40
2022-08-05T14:11:31.406Z,1.70
2022-08-05T14:13:03.086Z,1.40
2022-08-05T14:14:34.681Z,1.48
2022-08-05T14:16:11.430Z,1.25
2022-08-05T14:17:44.649Z,1.50
2022-08-05T14:19:19.708Z,1.48
2022-08-05T14:20:55.406Z,1.42
2022-08-05T14:22:30.489Z,1.65
2022-08-05T14:24:06.196Z,3.38
2022-08-05T14:25:37.764Z,1.67
2022-08-05T14:27:18.491Z,1.60
2022-08-05T14:28:51.930Z,1.63
2022-08-05T14:30:26.610Z,1.73
2022-08-05T14:32:12.136Z,1.50
2022-08-05T14:33:59.895Z,1.52
2022-08-05T14:35:37.160Z,1.50
2022-08-05T14:37:22.557Z,1.60
2022-08-05T14:38:54.750Z,1.60
2022-08-05T14:40:26.370Z,1.30
2022-08-05T14:42:19.603Z,1.70
2022-08-05T14:44:02.339Z,1.73
2022-08-05T14:45:41.138Z,1.20
2022-08-05T14:47:12.828Z,1.42
2022-08-05T14:48:44.440Z,1.73
2022-08-05T14:50:20.950Z,1.00
2022-08-05T14:51:52.567Z,1.23
2022-08-05T14:53:24.159Z,1.30
2022-08-05T14:55:01.578Z,1.30
2022-08-05T14:56:33.960Z,1.55
2022-08-05T14:58:10.836Z,1.50
2022-08-05T14:59:43.878Z,1.50
2022-08-05T15:01:24.196Z,1.48
2022-08-05T15:03:09.996Z,1.40
2022-08-05T15:04:41.660Z,1.30
2022-08-05T15:06:15.935Z,1.20
2022-08-05T15:08:08.654Z,1.23
2022-08-05T15:09:52.509Z,1.40
2022-08-05T15:11:51.309Z,1.20
2022-08-05T15:13:17.844Z,1.40
2022-08-05T15:14:50.450Z,1.30
2022-08-05T15:16:22.321Z,1.50
2022-08-05T15:17:53.912Z,1.30
2022-08-05T15:19:25.968Z,1.23
2022-08-05T15:20:57.900Z,1.17
2022-08-05T15:22:40.776Z,1.25
2022-08-05T15:24:16.346Z,1.35
2022-08-05T15:25:52.215Z,2.13
2022-08-05T15:27:25.755Z,1.40
2022-08-05T15:28:57.559Z,1.38
2022-08-05T15:30:32.178Z,1.58
2022-08-05T15:32:05.920Z,1.40
2022-08-05T15:34:04.175Z,1.40
2022-08-05T15:35:36.302Z,1.48
2022-08-05T15:37:20.644Z,1.50
2022-08-05T15:41:00.838Z,1.27
2022-08-05T15:41:21.973Z,1.75
2022-08-05T15:42:57.704Z,1.42
2022-08-05T15:44:39.719Z,1.20
2022-08-05T15:46:11.375Z,1.33
2022-08-05T15:47:44.169Z,1.50
2022-08-05T15:49:26.234Z,1.30
2022-08-05T15:51:07.562Z,1.10
2022-08-05T15:52:52.854Z,1.40
2022-08-05T15:54:34.357Z,1.65
2022-08-05T15:56:13.024Z,1.70
2022-08-05T15:57:48.802Z,1.35
2022-08-05T15:59:22.255Z,1.30
2022-08-05T16:01:11.779Z,1.65
2022-08-05T16:02:46.381Z,1.58
2022-08-05T16:04:18.858Z,1.40
2022-08-05T16:05:52.759Z,1.50
2022-08-05T16:07:29.371Z,1.52
2022-08-05T16:09:02.259Z,1.38
2022-08-05T16:10:33.859Z,1.73
2022-08-05T16:12:05.881Z,1.50
2022-08-05T16:13:37.934Z,1.50
2022-08-05T16:15:10.377Z,1.30
2022-08-05T16:16:50.561Z,1.20
2022-08-05T16:18:22.143Z,1.50
2022-08-05T16:20:04.312Z,1.17
2022-08-05T16:21:58.401Z,1.85
2022-08-05T16:23:29.359Z,1.60
2022-08-05T16:25:20.964Z,1.70
2022-08-05T16:26:58.050Z,1.33
2022-08-05T16:28:29.618Z,1.50
2022-08-05T16:30:01.215Z,1.80
2022-08-05T16:31:56.314Z,1.35
2022-08-05T16:33:25.342Z,1.60
2022-08-05T16:34:58.960Z,1.40
2022-08-05T16:36:30.710Z,1.70
2022-08-05T16:38:15.778Z,1.80
2022-08-05T16:40:06.236Z,1.65
2022-08-05T16:42:13.944Z,2.17
2022-08-05T16:43:35.288Z,1.70
2022-08-05T16:46:03.850Z,1.75
2022-08-05T16:46:59.348Z,1.80
2022-08-05T16:48:33.872Z,1.90
2022-08-05T16:50:08.607Z,1.98
2022-08-05T16:51:50.082Z,1.55
2022-08-05T16:54:03.262Z,1.75
2022-08-05T16:55:14.799Z,1.90
2022-08-05T16:56:46.901Z,1.67
2022-08-05T16:58:23.614Z,1.77
2022-08-05T17:00:02.804Z,1.90
2022-08-05T17:01:54.898Z,2.00
2022-08-05T17:03:27.942Z,1.63
2022-08-05T17:04:59.580Z,1.58
2022-08-05T17:06:31.855Z,1.45
2022-08-05T17:08:03.647Z,1.63
2022-08-05T17:09:38.986Z,1.30
2022-08-05T17:11:27.621Z,1.27
2022-08-05T17:12:59.235Z,1.60
2022-08-05T17:14:37.362Z,1.83
2022-08-05T17:16:27.877Z,1.55
2022-08-05T17:18:01.250Z,1.67
2022-08-05T17:19:33.912Z,1.50
2022-08-05T17:21:05.803Z,1.27
2022-08-05T17:22:37.610Z,1.10
2022-08-05T17:24:19.410Z,1.17
2022-08-05T17:26:02.417Z,1.02
2022-08-05T17:27:38.806Z,1.25
2022-08-05T17:29:10.676Z,1.00
2022-08-05T17:30:50.663Z,1.23
2022-08-05T17:32:26.797Z,1.23
2022-08-05T17:34:00.601Z,1.50
2022-08-05T17:35:32.559Z,1.27
2022-08-05T17:37:40.578Z,1.45
2022-08-05T17:39:23.952Z,1.55
2022-08-05T17:41:01.570Z,1.42
2022-08-05T17:42:33.692Z,1.65
2022-08-05T17:44:05.704Z,1.65
2022-08-05T17:45:42.804Z,1.40
2022-08-05T17:47:15.292Z,1.50
2022-08-05T17:48:47.993Z,1.60
2022-08-05T17:50:28.045Z,1.40
2022-08-05T17:52:00.667Z,1.25
2022-08-05T17:53:33.016Z,1.20
2022-08-05T17:55:10.274Z,1.30
2022-08-05T17:56:41.870Z,1.27
2022-08-05T17:58:16.716Z,1.55
2022-08-05T18:00:03.073Z,1.52
2022-08-05T18:01:47.246Z,2.10
2022-08-05T18:05:16.983Z,1.83
2022-08-05T18:06:49.362Z,2.00
2022-08-05T18:08:21.699Z,1.77
2022-08-05T18:09:59.796Z,1.80
2022-08-05T18:11:33.864Z,2.03
2022-08-05T18:13:07.728Z,2.15
2022-08-05T18:14:44.207Z,2.38
2022-08-05T18:16:20.529Z,2.30
2022-08-05T18:18:01.597Z,2.60
2022-08-05T18:19:36.293Z,2.70
2022-08-05T18:21:13.301Z,2.70
2022-08-05T18:22:54.700Z,2.60
2022-08-05T18:24:28.886Z,2.42
2022-08-05T18:26:01.595Z,3.10
2022-08-05T18:27:33.956Z,3.13
2022-08-05T18:29:09.261Z,3.05
2022-08-05T18:30:42.057Z,2.70
2022-08-05T18:32:13.985Z,2.80
2022-08-05T18:33:49.716Z,3.03
2022-08-05T18:35:49.539Z,3.30
2022-08-05T18:37:33.639Z,3.03
2022-08-05T18:39:22.638Z,3.13
2022-08-05T18:41:53.513Z,3.00
2022-08-05T18:42:50.577Z,3.10
2022-08-05T18:44:33.285Z,3.03
2022-08-05T18:46:07.059Z,2.95
2022-08-05T18:47:41.469Z,3.05
2022-08-05T18:49:44.653Z,3.40
2022-08-05T18:52:04.399Z,3.10
2022-08-05T18:53:34.695Z,3.17
2022-08-05T18:55:14.858Z,2.95
2022-08-05T18:56:51.101Z,3.08
2022-08-05T18:58:28.628Z,3.88
2022-08-05T19:00:03.501Z,3.90
2022-08-05T19:01:48.121Z,3.20
2022-08-05T19:03:52.701Z,4.28
2022-08-05T19:06:13.496Z,3.47
2022-08-05T19:07:15.282Z,3.90
2022-08-05T19:08:46.925Z,3.88
2022-08-05T19:10:28.557Z,3.85
2022-08-05T19:12:01.586Z,3.72
2022-08-05T19:13:35.971Z,4.43
2022-08-05T19:15:25.226Z,3.08
2022-08-05T19:17:02.535Z,3.00
2022-08-05T19:18:38.234Z,2.72
2022-08-05T19:20:14.737Z,2.85
2022-08-05T19:21:47.104Z,2.67
2022-08-05T19:24:08.038Z,2.70
2022-08-05T19:25:21.669Z,3.10
2022-08-05T19:27:04.190Z,2.53
2022-08-05T19:28:41.474Z,2.63
2022-08-05T19:30:14.309Z,3.30
2022-08-05T19:31:51.319Z,2.95
2022-08-05T19:33:35.846Z,2.70
2022-08-05T19:35:08.861Z,2.42
2022-08-05T19:36:40.469Z,2.03
2022-08-05T19:38:14.205Z,2.20
2022-08-05T19:39:51.032Z,2.25
2022-08-05T19:42:05.852Z,2.15
2022-08-05T19:44:04.545Z,2.05
2022-08-05T19:45:07.700Z,1.85
2022-08-05T19:46:39.524Z,1.90
2022-08-05T19:48:14.671Z,1.88
2022-08-05T19:49:48.268Z,1.88
2022-08-05T19:51:56.381Z,1.55
2022-08-05T19:53:11.827Z,1.48
2022-08-05T19:54:44.300Z,1.60
2022-08-05T19:56:27.495Z,1.40
2022-08-05T19:58:14.456Z,1.45
2022-08-05T20:00:02.073Z,1.30
2022-08-05T20:01:43.328Z,1.30
2022-08-05T20:03:15.335Z,1.30
2022-08-05T20:04:48.482Z,1.20
2022-08-05T20:06:28.638Z,1.30
2022-08-05T20:08:01.114Z,1.27
2022-08-05T20:09:53.520Z,1.30
2022-08-05T20:11:24.993Z,1.00
2022-08-05T20:12:56.628Z,1.00
2022-08-05T20:14:28.262Z,1.02
2022-08-05T20:15:59.915Z,1.10
2022-08-05T20:17:32.482Z,0.73
2022-08-05T20:19:08.145Z,0.70
2022-08-05T20:20:44.749Z,1.15
2022-08-05T20:22:16.469Z,0.65
2022-08-05T20:23:51.161Z,0.70
2022-08-05T20:25:24.950Z,0.77
2022-08-05T20:27:11.325Z,0.60
2022-08-05T20:28:48.540Z,0.68
2022-08-05T20:30:20.533Z,0.50
2022-08-05T20:31:59.713Z,0.63
2022-08-05T20:33:33.034Z,0.50
2022-08-05T20:35:05.056Z,0.40
2022-08-05T20:36:39.207Z,0.43
2022-08-05T20:38:22.570Z,0.50
2022-08-05T20:39:59.442Z,0.43
2022-08-05T20:41:44.500Z,0.40
2022-08-05T20:43:17.535Z,0.60
2022-08-05T20:45:09.837Z,0.40
2022-08-05T20:46:41.453Z,0.32
2022-08-05T20:48:16.508Z,0.30
2022-08-05T20:49:48.339Z,0.40
2022-08-05T20:51:22.987Z,0.50
2022-08-05T20:52:54.616Z,0.50
2022-08-05T20:54:59.866Z,0.30
2022-08-05T20:56:27.691Z,0.95
2022-08-05T20:58:01.713Z,0.40
2022-08-05T21:00:11.170Z,0.47
2022-08-05T21:01:38.557Z,0.50
2022-08-05T21:03:10.527Z,0.43
2022-08-05T21:04:43.102Z,0.60
2022-08-05T21:06:27.581Z,0.50
2022-08-05T21:07:59.665Z,0.50
2022-08-05T21:09:31.483Z,0.35
2022-08-05T21:11:09.281Z,0.50
2022-08-05T21:12:57.915Z,0.50
2022-08-05T21:14:35.053Z,0.50
2022-08-05T21:16:07.414Z,0.60
2022-08-05T21:17:39.293Z,0.70
2022-08-05T21:19:11.041Z,0.40
2022-08-05T21:20:42.660Z,0.50
2022-08-05T21:22:21.908Z,0.40
2022-08-05T21:23:54.633Z,0.60
2022-08-05T21:25:26.273Z,0.60
2022-08-05T21:27:05.834Z,0.50
2022-08-05T21:28:48.056Z,0.40
2022-08-05T21:30:23.908Z,0.40
2022-08-05T21:31:55.823Z,0.50
2022-08-05T21:33:39.743Z,0.50
2022-08-05T21:35:18.162Z,0.40
2022-08-05T21:37:01.873Z,0.50
2022-08-05T21:38:38.659Z,0.50
2022-08-05T21:40:13.167Z,0.50
2022-08-05T21:41:52.589Z,0.50
2022-08-05T21:43:25.112Z,0.43
2022-08-05T21:44:57.126Z,0.70
2022-08-05T21:46:29.149Z,0.60
2022-08-05T21:48:00.818Z,0.63
2022-08-05T21:50:00.386Z,0.68
2022-08-05T21:52:15.715Z,0.70
2022-08-05T21:53:17.763Z,0.60
2022-08-05T21:54:51.880Z,0.50
2022-08-05T21:56:26.695Z,0.50
2022-08-05T21:57:58.292Z,0.50
2022-08-05T21:59:54.119Z,0.80
2022-08-05T22:01:24.765Z,0.70
2022-08-05T22:02:56.731Z,0.40
2022-08-05T22:04:28.353Z,0.70
2022-08-05T22:06:00.006Z,0.55
2022-08-05T22:07:40.392Z,0.70
2022-08-05T22:09:24.145Z,0.60
2022-08-05T22:11:16.005Z,0.60
2022-08-05T22:12:50.835Z,0.60
2022-08-05T22:14:35.161Z,0.50
2022-08-05T22:16:20.679Z,0.50
2022-08-05T22:18:01.131Z,0.65
2022-08-05T22:20:02.013Z,0.50
2022-08-05T22:21:24.856Z,0.60